sensor_id;sensor_type;location;lat;lon;timestamp;pressure;altitude;pressure_sealevel;temperature;humidity
22257;BME280;11297;42.686;23.374;2023-03-03T00:00:21;95064.03;;;6.36;74.99
22257;BME280;11297;42.686;23.374;2023-03-03T00:02:46;95067.16;;;6.33;75.12
22257;BME280;11297;42.686;23.374;2023-03-03T00:05:12;95057.66;;;6.24;75.20
22257;BME280;11297;42.686;23.374;2023-03-03T00:07:42;95068.44;;;6.31;75.41
22257;BME280;11297;42.686;23.374;2023-03-03T00:10:08;95065.00;;;6.40;75.56
22257;BME280;11297;42.686;23.374;2023-03-03T00:12:34;95066.06;;;6.39;75.31
22257;BME280;11297;42.686;23.374;2023-03-03T00:15:01;95069.34;;;6.45;75.64
22257;BME280;11297;42.686;23.374;2023-03-03T00:17:28;95059.00;;;6.50;75.44
22257;BME280;11297;42.686;23.374;2023-03-03T00:19:54;95075.53;;;6.49;75.20
22257;BME280;11297;42.686;23.374;2023-03-03T00:22:31;95053.06;;;6.49;74.63
22257;BME280;11297;42.686;23.374;2023-03-03T00:25:35;95055.00;;;6.62;74.28
22257;BME280;11297;42.686;23.374;2023-03-03T00:28:17;95055.00;;;6.62;74.41
22257;BME280;11297;42.686;23.374;2023-03-03T00:30:44;95020.13;;;6.41;74.17
22257;BME280;11297;42.686;23.374;2023-03-03T00:33:33;95050.25;;;6.74;73.79
22257;BME280;11297;42.686;23.374;2023-03-03T00:36:30;95052.09;;;6.68;73.74
22257;BME280;11297;42.686;23.374;2023-03-03T00:39:17;95043.78;;;6.76;74.35
22257;BME280;11297;42.686;23.374;2023-03-03T00:41:43;95048.38;;;6.79;73.68
22257;BME280;11297;42.686;23.374;2023-03-03T00:44:37;95034.00;;;6.73;73.67
22257;BME280;11297;42.686;23.374;2023-03-03T00:47:35;95035.66;;;6.60;74.14
22257;BME280;11297;42.686;23.374;2023-03-03T00:52:33;95026.72;;;6.52;74.56
22257;BME280;11297;42.686;23.374;2023-03-03T00:54:59;95015.53;;;6.62;74.53
22257;BME280;11297;42.686;23.374;2023-03-03T00:57:24;95005.81;;;6.77;74.20
22257;BME280;11297;42.686;23.374;2023-03-03T00:59:50;95013.50;;;6.82;73.53
22257;BME280;11297;42.686;23.374;2023-03-03T01:02:15;95008.06;;;6.83;73.50
22257;BME280;11297;42.686;23.374;2023-03-03T01:04:41;94991.88;;;6.78;73.13
22257;BME280;11297;42.686;23.374;2023-03-03T01:07:08;94991.06;;;6.82;73.14
22257;BME280;11297;42.686;23.374;2023-03-03T01:09:33;94988.34;;;6.92;73.05
22257;BME280;11297;42.686;23.374;2023-03-03T01:11:59;95005.72;;;6.87;73.35
22257;BME280;11297;42.686;23.374;2023-03-03T01:14:25;95003.53;;;6.94;73.49
22257;BME280;11297;42.686;23.374;2023-03-03T01:16:50;94997.13;;;6.91;72.87
22257;BME280;11297;42.686;23.374;2023-03-03T01:19:16;94991.16;;;6.96;72.91
22257;BME280;11297;42.686;23.374;2023-03-03T01:21:41;94985.53;;;6.89;72.77
22257;BME280;11297;42.686;23.374;2023-03-03T01:24:07;94989.06;;;6.74;72.75
22257;BME280;11297;42.686;23.374;2023-03-03T01:26:32;95006.53;;;6.59;73.24
22257;BME280;11297;42.686;23.374;2023-03-03T01:28:58;94995.09;;;6.65;74.07
22257;BME280;11297;42.686;23.374;2023-03-03T01:31:23;95005.44;;;6.65;73.96
22257;BME280;11297;42.686;23.374;2023-03-03T01:33:49;94992.25;;;6.66;73.79
22257;BME280;11297;42.686;23.374;2023-03-03T01:36:14;94992.53;;;6.65;74.00
22257;BME280;11297;42.686;23.374;2023-03-03T01:38:39;94989.13;;;6.69;73.61
22257;BME280;11297;42.686;23.374;2023-03-03T01:41:05;94974.56;;;6.55;73.87
22257;BME280;11297;42.686;23.374;2023-03-03T01:43:32;94986.88;;;6.63;74.20
22257;BME280;11297;42.686;23.374;2023-03-03T01:48:42;94980.06;;;6.49;74.94
22257;BME280;11297;42.686;23.374;2023-03-03T01:51:17;94975.84;;;6.58;74.32
22257;BME280;11297;42.686;23.374;2023-03-03T01:53:50;94981.09;;;6.71;73.85
22257;BME280;11297;42.686;23.374;2023-03-03T01:56:17;94988.03;;;6.75;73.26
22257;BME280;11297;42.686;23.374;2023-03-03T01:58:44;94985.72;;;6.74;73.19
22257;BME280;11297;42.686;23.374;2023-03-03T02:01:36;94981.22;;;6.61;73.02
22257;BME280;11297;42.686;23.374;2023-03-03T02:04:01;94976.97;;;6.70;72.69
22257;BME280;11297;42.686;23.374;2023-03-03T02:06:32;94975.47;;;6.69;72.17
22257;BME280;11297;42.686;23.374;2023-03-03T02:09:05;94972.72;;;6.61;72.40
22257;BME280;11297;42.686;23.374;2023-03-03T02:11:35;94971.72;;;6.57;72.27
22257;BME280;11297;42.686;23.374;2023-03-03T02:14:02;94975.47;;;6.69;72.12
22257;BME280;11297;42.686;23.374;2023-03-03T02:16:27;94976.78;;;6.66;71.92
22257;BME280;11297;42.686;23.374;2023-03-03T02:18:53;94970.97;;;6.56;72.53
22257;BME280;11297;42.686;23.374;2023-03-03T02:21:20;94976.00;;;6.43;72.74
22257;BME280;11297;42.686;23.374;2023-03-03T02:26:31;94977.41;;;6.54;73.04
22257;BME280;11297;42.686;23.374;2023-03-03T02:28:58;94975.50;;;6.64;73.16
22257;BME280;11297;42.686;23.374;2023-03-03T02:31:26;94982.75;;;6.62;73.23
22257;BME280;11297;42.686;23.374;2023-03-03T02:33:53;94974.53;;;6.60;73.16
22257;BME280;11297;42.686;23.374;2023-03-03T02:36:36;94976.13;;;6.56;73.13
22257;BME280;11297;42.686;23.374;2023-03-03T02:39:22;94977.78;;;6.70;73.49
22257;BME280;11297;42.686;23.374;2023-03-03T02:44:25;94975.06;;;6.80;72.67
22257;BME280;11297;42.686;23.374;2023-03-03T02:46:52;94974.94;;;6.90;72.59
22257;BME280;11297;42.686;23.374;2023-03-03T02:49:23;94969.50;;;6.92;72.50
22257;BME280;11297;42.686;23.374;2023-03-03T02:51:49;94975.31;;;7.02;72.01
22257;BME280;11297;42.686;23.374;2023-03-03T02:54:17;94975.03;;;7.04;71.80
22257;BME280;11297;42.686;23.374;2023-03-03T02:56:43;94980.19;;;7.04;71.33
22257;BME280;11297;42.686;23.374;2023-03-03T02:59:09;94972.25;;;7.00;71.17
22257;BME280;11297;42.686;23.374;2023-03-03T03:01:34;94967.75;;;7.06;71.42
22257;BME280;11297;42.686;23.374;2023-03-03T03:04:08;94967.75;;;7.06;71.09
22257;BME280;11297;42.686;23.374;2023-03-03T03:06:34;94971.81;;;7.12;71.29
22257;BME280;11297;42.686;23.374;2023-03-03T03:08:59;94962.28;;;7.12;70.79
22257;BME280;11297;42.686;23.374;2023-03-03T03:11:25;94964.34;;;7.10;71.30
22257;BME280;11297;42.686;23.374;2023-03-03T03:13:51;94968.97;;;7.13;71.08
22257;BME280;11297;42.686;23.374;2023-03-03T03:16:17;94955.56;;;7.11;71.04
22257;BME280;11297;42.686;23.374;2023-03-03T03:18:43;94967.63;;;7.15;70.83
22257;BME280;11297;42.686;23.374;2023-03-03T03:21:10;94967.38;;;7.17;71.08
22257;BME280;11297;42.686;23.374;2023-03-03T03:23:37;94965.81;;;7.16;70.53
22257;BME280;11297;42.686;23.374;2023-03-03T03:26:03;94962.84;;;7.09;70.63
22257;BME280;11297;42.686;23.374;2023-03-03T03:28:29;94956.69;;;7.05;71.15
22257;BME280;11297;42.686;23.374;2023-03-03T03:30:55;94955.66;;;7.06;70.71
22257;BME280;11297;42.686;23.374;2023-03-03T03:33:21;94965.69;;;7.08;70.95
22257;BME280;11297;42.686;23.374;2023-03-03T03:35:47;94954.28;;;7.09;71.71
22257;BME280;11297;42.686;23.374;2023-03-03T03:38:13;94952.53;;;6.86;71.49
22257;BME280;11297;42.686;23.374;2023-03-03T03:40:39;94953.09;;;6.83;72.26
22257;BME280;11297;42.686;23.374;2023-03-03T03:43:04;94948.66;;;6.88;72.42
22257;BME280;11297;42.686;23.374;2023-03-03T03:45:30;94950.31;;;6.79;72.40
22257;BME280;11297;42.686;23.374;2023-03-03T03:47:56;94939.72;;;6.81;72.10
22257;BME280;11297;42.686;23.374;2023-03-03T03:50:21;94950.22;;;6.84;72.09
22257;BME280;11297;42.686;23.374;2023-03-03T03:52:46;94940.38;;;6.68;72.70
22257;BME280;11297;42.686;23.374;2023-03-03T03:55:12;94935.00;;;6.65;73.44
22257;BME280;11297;42.686;23.374;2023-03-03T03:57:37;94938.06;;;6.66;73.00
22257;BME280;11297;42.686;23.374;2023-03-03T04:00:07;94944.53;;;6.64;73.59
22257;BME280;11297;42.686;23.374;2023-03-03T04:02:33;94941.13;;;6.68;73.77
22257;BME280;11297;42.686;23.374;2023-03-03T04:04:58;94944.34;;;6.79;73.24
22257;BME280;11297;42.686;23.374;2023-03-03T04:07:24;94935.84;;;6.78;72.88
22257;BME280;11297;42.686;23.374;2023-03-03T04:09:49;94932.78;;;6.76;73.50
22257;BME280;11297;42.686;23.374;2023-03-03T04:12:15;94933.19;;;6.65;73.99
22257;BME280;11297;42.686;23.374;2023-03-03T04:14:40;94936.75;;;6.69;73.73
22257;BME280;11297;42.686;23.374;2023-03-03T04:17:05;94937.84;;;6.63;74.48
22257;BME280;11297;42.686;23.374;2023-03-03T04:19:31;94935.09;;;6.78;74.48
22257;BME280;11297;42.686;23.374;2023-03-03T04:21:56;94920.84;;;6.80;74.67
22257;BME280;11297;42.686;23.374;2023-03-03T04:24:21;94936.22;;;6.90;74.11
22257;BME280;11297;42.686;23.374;2023-03-03T04:26:47;94938.16;;;6.98;74.20
22257;BME280;11297;42.686;23.374;2023-03-03T04:29:12;94925.81;;;6.95;73.64
22257;BME280;11297;42.686;23.374;2023-03-03T04:31:38;94927.44;;;7.10;73.15
22257;BME280;11297;42.686;23.374;2023-03-03T04:34:03;94937.97;;;7.13;73.02
22257;BME280;11297;42.686;23.374;2023-03-03T04:36:29;94934.16;;;7.11;73.80
22257;BME280;11297;42.686;23.374;2023-03-03T04:38:54;94929.09;;;7.01;73.74
22257;BME280;11297;42.686;23.374;2023-03-03T04:41:19;94926.88;;;7.13;73.11
22257;BME280;11297;42.686;23.374;2023-03-03T04:43:45;94934.28;;;7.01;73.24
22257;BME280;11297;42.686;23.374;2023-03-03T04:46:10;94934.75;;;7.03;73.49
22257;BME280;11297;42.686;23.374;2023-03-03T04:48:36;94931.41;;;7.02;73.34
22257;BME280;11297;42.686;23.374;2023-03-03T04:51:02;94933.28;;;6.97;73.89
22257;BME280;11297;42.686;23.374;2023-03-03T04:53:28;94930.31;;;7.08;74.00
22257;BME280;11297;42.686;23.374;2023-03-03T04:55:53;94935.38;;;7.13;73.50
22257;BME280;11297;42.686;23.374;2023-03-03T04:58:19;94933.50;;;7.18;73.75
22257;BME280;11297;42.686;23.374;2023-03-03T05:00:46;94934.50;;;7.22;73.02
22257;BME280;11297;42.686;23.374;2023-03-03T05:03:12;94941.88;;;7.29;73.34
22257;BME280;11297;42.686;23.374;2023-03-03T05:05:37;94933.09;;;7.30;72.86
22257;BME280;11297;42.686;23.374;2023-03-03T05:08:03;94939.94;;;7.39;73.07
22257;BME280;11297;42.686;23.374;2023-03-03T05:10:28;94939.94;;;7.39;72.19
22257;BME280;11297;42.686;23.374;2023-03-03T05:12:54;94921.56;;;7.41;72.25
22257;BME280;11297;42.686;23.374;2023-03-03T05:15:19;94942.28;;;7.54;71.94
22257;BME280;11297;42.686;23.374;2023-03-03T05:17:45;94942.00;;;7.56;71.94
22257;BME280;11297;42.686;23.374;2023-03-03T05:20:11;94941.72;;;7.57;72.08
22257;BME280;11297;42.686;23.374;2023-03-03T05:22:37;94942.50;;;7.39;71.75
22257;BME280;11297;42.686;23.374;2023-03-03T05:25:03;94944.13;;;7.54;71.97
22257;BME280;11297;42.686;23.374;2023-03-03T05:27:28;94940.25;;;7.51;71.91
22257;BME280;11297;42.686;23.374;2023-03-03T05:29:54;94945.06;;;7.58;71.99
22257;BME280;11297;42.686;23.374;2023-03-03T05:32:19;94944.88;;;7.54;71.61
22257;BME280;11297;42.686;23.374;2023-03-03T05:34:44;94944.41;;;7.52;71.34
22257;BME280;11297;42.686;23.374;2023-03-03T05:37:10;94948.28;;;7.50;71.57
22257;BME280;11297;42.686;23.374;2023-03-03T05:39:35;94944.25;;;7.44;71.41
22257;BME280;11297;42.686;23.374;2023-03-03T05:42:01;94952.66;;;7.36;71.31
22257;BME280;11297;42.686;23.374;2023-03-03T05:44:27;94952.94;;;7.34;72.07
22257;BME280;11297;42.686;23.374;2023-03-03T05:46:52;94943.53;;;7.38;71.58
22257;BME280;11297;42.686;23.374;2023-03-03T05:49:18;94953.59;;;7.40;71.81
22257;BME280;11297;42.686;23.374;2023-03-03T05:51:43;94956.81;;;7.50;72.06
22257;BME280;11297;42.686;23.374;2023-03-03T05:54:09;94961.03;;;7.46;71.49
22257;BME280;11297;42.686;23.374;2023-03-03T05:56:34;94958.44;;;7.46;72.18
22257;BME280;11297;42.686;23.374;2023-03-03T05:58:59;94958.50;;;7.41;72.02
22257;BME280;11297;42.686;23.374;2023-03-03T06:01:25;94949.97;;;7.41;72.35
22257;BME280;11297;42.686;23.374;2023-03-03T06:03:52;94954.03;;;7.47;72.11
22257;BME280;11297;42.686;23.374;2023-03-03T06:06:17;94947.53;;;7.49;71.51
22257;BME280;11297;42.686;23.374;2023-03-03T06:08:44;94956.69;;;7.42;71.75
22257;BME280;11297;42.686;23.374;2023-03-03T06:11:10;94954.38;;;7.59;72.43
22257;BME280;11297;42.686;23.374;2023-03-03T06:13:36;94951.59;;;7.55;72.50
22257;BME280;11297;42.686;23.374;2023-03-03T06:16:01;94958.59;;;7.68;72.92
22257;BME280;11297;42.686;23.374;2023-03-03T06:18:26;94955.53;;;7.66;72.11
22257;BME280;11297;42.686;23.374;2023-03-03T06:20:53;94963.34;;;7.79;71.84
22257;BME280;11297;42.686;23.374;2023-03-03T06:23:19;94965.50;;;7.91;72.15
22257;BME280;11297;42.686;23.374;2023-03-03T06:25:44;94968.13;;;7.86;71.94
22257;BME280;11297;42.686;23.374;2023-03-03T06:28:11;94955.88;;;7.78;71.47
22257;BME280;11297;42.686;23.374;2023-03-03T06:30:37;94971.22;;;7.88;71.38
22257;BME280;11297;42.686;23.374;2023-03-03T06:33:02;94964.94;;;7.94;71.48
22257;BME280;11297;42.686;23.374;2023-03-03T06:35:28;94960.78;;;8.24;76.23
22257;BME280;11297;42.686;23.374;2023-03-03T06:37:53;94955.25;;;8.17;72.30
22257;BME280;11297;42.686;23.374;2023-03-03T06:40:19;94953.56;;;7.76;70.41
22257;BME280;11297;42.686;23.374;2023-03-03T06:42:46;94963.84;;;7.95;70.60
22257;BME280;11297;42.686;23.374;2023-03-03T06:45:12;94968.66;;;7.88;70.87
22257;BME280;11297;42.686;23.374;2023-03-03T06:47:39;94976.75;;;7.81;70.64
22257;BME280;11297;42.686;23.374;2023-03-03T06:50:05;94969.84;;;7.77;70.66
22257;BME280;11297;42.686;23.374;2023-03-03T06:52:30;94975.41;;;7.84;70.78
22257;BME280;11297;42.686;23.374;2023-03-03T06:55:00;94968.72;;;7.83;71.05
22257;BME280;11297;42.686;23.374;2023-03-03T06:57:31;94972.41;;;7.95;71.71
22257;BME280;11297;42.686;23.374;2023-03-03T07:00:17;94972.78;;;8.20;71.02
22257;BME280;11297;42.686;23.374;2023-03-03T07:02:44;94981.13;;;8.17;70.50
22257;BME280;11297;42.686;23.374;2023-03-03T07:05:15;94971.38;;;8.09;69.66
22257;BME280;11297;42.686;23.374;2023-03-03T07:07:40;94979.13;;;8.09;70.00
22257;BME280;11297;42.686;23.374;2023-03-03T07:10:15;94985.81;;;7.97;69.45
22257;BME280;11297;42.686;23.374;2023-03-03T07:12:42;94974.69;;;8.15;69.36
22257;BME280;11297;42.686;23.374;2023-03-03T07:15:16;94982.84;;;8.22;69.91
22257;BME280;11297;42.686;23.374;2023-03-03T07:17:47;94971.44;;;8.23;70.38
22257;BME280;11297;42.686;23.374;2023-03-03T07:20:24;94968.56;;;8.38;70.58
22257;BME280;11297;42.686;23.374;2023-03-03T07:22:53;94972.53;;;8.49;70.65
22257;BME280;11297;42.686;23.374;2023-03-03T07:27:58;94985.06;;;8.28;68.72
22257;BME280;11297;42.686;23.374;2023-03-03T07:30:26;94975.16;;;8.17;68.18
22257;BME280;11297;42.686;23.374;2023-03-03T07:32:57;94967.25;;;8.08;68.79
22257;BME280;11297;42.686;23.374;2023-03-03T07:35:43;94969.34;;;8.25;69.02
22257;BME280;11297;42.686;23.374;2023-03-03T07:38:34;94967.50;;;8.25;69.27
22257;BME280;11297;42.686;23.374;2023-03-03T07:41:03;94966.28;;;8.36;67.76
22257;BME280;11297;42.686;23.374;2023-03-03T07:43:33;94964.09;;;8.43;67.63
22257;BME280;11297;42.686;23.374;2023-03-03T07:48:35;94965.34;;;8.46;67.11
22257;BME280;11297;42.686;23.374;2023-03-03T07:51:05;94970.41;;;8.37;66.84
22257;BME280;11297;42.686;23.374;2023-03-03T07:53:36;94955.75;;;8.46;66.66
22257;BME280;11297;42.686;23.374;2023-03-03T07:56:11;94962.81;;;8.41;67.03
22257;BME280;11297;42.686;23.374;2023-03-03T07:58:40;94958.50;;;8.36;66.69
22257;BME280;11297;42.686;23.374;2023-03-03T08:01:35;94960.31;;;8.22;67.90
22257;BME280;11297;42.686;23.374;2023-03-03T08:04:31;94964.44;;;8.23;69.03
22257;BME280;11297;42.686;23.374;2023-03-03T08:07:01;94957.44;;;8.24;67.86
22257;BME280;11297;42.686;23.374;2023-03-03T08:09:36;94953.25;;;8.28;67.87
22257;BME280;11297;42.686;23.374;2023-03-03T08:14:33;94956.41;;;8.38;68.23
22257;BME280;11297;42.686;23.374;2023-03-03T08:17:00;94955.44;;;8.21;68.04
22257;BME280;11297;42.686;23.374;2023-03-03T08:19:26;94949.00;;;8.18;69.23
22257;BME280;11297;42.686;23.374;2023-03-03T08:21:59;94953.59;;;8.21;68.88
22257;BME280;11297;42.686;23.374;2023-03-03T08:24:27;94948.06;;;8.28;69.19
22257;BME280;11297;42.686;23.374;2023-03-03T08:26:52;94950.28;;;8.34;69.09
22257;BME280;11297;42.686;23.374;2023-03-03T08:29:17;94954.97;;;8.19;68.67
22257;BME280;11297;42.686;23.374;2023-03-03T08:31:43;94944.78;;;8.22;68.17
22257;BME280;11297;42.686;23.374;2023-03-03T08:34:08;94935.59;;;8.30;68.18
22257;BME280;11297;42.686;23.374;2023-03-03T08:36:34;94944.50;;;8.24;68.12
22257;BME280;11297;42.686;23.374;2023-03-03T08:38:59;94947.22;;;8.32;68.93
22257;BME280;11297;42.686;23.374;2023-03-03T08:41:25;94942.63;;;8.43;68.47
22257;BME280;11297;42.686;23.374;2023-03-03T08:43:50;94954.78;;;8.42;67.39
22257;BME280;11297;42.686;23.374;2023-03-03T08:46:15;94950.75;;;8.50;67.25
22257;BME280;11297;42.686;23.374;2023-03-03T08:48:41;94949.44;;;8.52;66.96
22257;BME280;11297;42.686;23.374;2023-03-03T08:51:06;94943.84;;;8.58;67.14
22257;BME280;11297;42.686;23.374;2023-03-03T08:53:31;94948.97;;;8.50;67.78
22257;BME280;11297;42.686;23.374;2023-03-03T08:56:00;94945.13;;;8.61;67.85
22257;BME280;11297;42.686;23.374;2023-03-03T08:58:26;94956.16;;;8.66;66.39
22257;BME280;11297;42.686;23.374;2023-03-03T09:00:51;94940.41;;;8.63;65.97
22257;BME280;11297;42.686;23.374;2023-03-03T09:03:16;94941.47;;;8.75;65.85
22257;BME280;11297;42.686;23.374;2023-03-03T09:05:42;94946.78;;;9.05;69.72
22257;BME280;11297;42.686;23.374;2023-03-03T09:08:09;94943.81;;;8.99;65.70
22257;BME280;11297;42.686;23.374;2023-03-03T09:10:35;94942.09;;;9.07;64.17
22257;BME280;11297;42.686;23.374;2023-03-03T09:13:11;94948.13;;;9.16;64.18
22257;BME280;11297;42.686;23.374;2023-03-03T09:15:38;94947.63;;;9.28;64.11
22257;BME280;11297;42.686;23.374;2023-03-03T09:18:16;94941.63;;;9.41;64.34
22257;BME280;11297;42.686;23.374;2023-03-03T09:23:37;94939.00;;;9.54;64.18
22257;BME280;11297;42.686;23.374;2023-03-03T09:28:43;94944.53;;;9.61;63.31
22257;BME280;11297;42.686;23.374;2023-03-03T09:31:24;94938.44;;;9.65;63.79
22257;BME280;11297;42.686;23.374;2023-03-03T09:33:50;94941.41;;;9.72;62.67
22257;BME280;11297;42.686;23.374;2023-03-03T09:36:29;94941.13;;;9.74;62.85
22257;BME280;11297;42.686;23.374;2023-03-03T09:38:59;94917.91;;;9.69;62.50
22257;BME280;11297;42.686;23.374;2023-03-03T09:41:44;94944.25;;;9.84;63.03
22257;BME280;11297;42.686;23.374;2023-03-03T09:44:33;94933.28;;;9.87;63.03
22257;BME280;11297;42.686;23.374;2023-03-03T09:52:22;94941.66;;;10.06;61.85
22257;BME280;11297;42.686;23.374;2023-03-03T09:55:34;94941.78;;;10.01;61.74
22257;BME280;11297;42.686;23.374;2023-03-03T10:00:52;94933.03;;;10.19;62.00
22257;BME280;11297;42.686;23.374;2023-03-03T10:06:17;94922.41;;;10.37;61.23
22257;BME280;11297;42.686;23.374;2023-03-03T10:14:45;94914.16;;;10.82;59.34
22257;BME280;11297;42.686;23.374;2023-03-03T10:39:31;94903.22;;;11.44;59.33
22257;BME280;11297;42.686;23.374;2023-03-03T10:53:18;94892.53;;;10.56;61.25
22257;BME280;11297;42.686;23.374;2023-03-03T10:58:55;94894.06;;;10.10;63.60
22257;BME280;11297;42.686;23.374;2023-03-03T11:04:31;94879.97;;;10.03;63.12
22257;BME280;11297;42.686;23.374;2023-03-03T11:18:43;94876.16;;;9.79;63.56
22257;BME280;11297;42.686;23.374;2023-03-03T11:22:02;94871.47;;;9.89;64.08
22257;BME280;11297;42.686;23.374;2023-03-03T11:27:32;94855.88;;;9.81;63.95
22257;BME280;11297;42.686;23.374;2023-03-03T11:33:08;94871.00;;;9.87;64.77
22257;BME280;11297;42.686;23.374;2023-03-03T11:38:23;94870.31;;;9.95;64.75
22257;BME280;11297;42.686;23.374;2023-03-03T11:43:56;94859.09;;;10.16;63.89
22257;BME280;11297;42.686;23.374;2023-03-03T11:46:38;94868.81;;;10.02;64.11
22257;BME280;11297;42.686;23.374;2023-03-03T11:49:13;94862.13;;;10.02;64.25
22257;BME280;11297;42.686;23.374;2023-03-03T11:52:04;94849.84;;;9.94;64.91
22257;BME280;11297;42.686;23.374;2023-03-03T11:57:38;94859.28;;;10.20;64.82
22257;BME280;11297;42.686;23.374;2023-03-03T12:02:54;94852.25;;;10.12;64.53
22257;BME280;11297;42.686;23.374;2023-03-03T12:11:08;94815.47;;;9.88;65.19
22257;BME280;11297;42.686;23.374;2023-03-03T12:13:59;94852.13;;;10.25;70.54
22257;BME280;11297;42.686;23.374;2023-03-03T12:27:28;94861.69;;;10.08;65.48
22257;BME280;11297;42.686;23.374;2023-03-03T12:33:04;94854.94;;;10.07;66.45
22257;BME280;11297;42.686;23.374;2023-03-03T12:40:35;94859.63;;;9.97;68.17
22257;BME280;11297;42.686;23.374;2023-03-03T12:49:54;94860.03;;;10.20;67.37
22257;BME280;11297;42.686;23.374;2023-03-03T12:55:14;94863.53;;;10.16;67.25
22257;BME280;11297;42.686;23.374;2023-03-03T12:57:58;94859.00;;;10.21;67.08
22257;BME280;11297;42.686;23.374;2023-03-03T13:00:42;94862.78;;;10.15;66.78
22257;BME280;11297;42.686;23.374;2023-03-03T13:03:28;94857.72;;;10.10;66.73
22257;BME280;11297;42.686;23.374;2023-03-03T13:06:16;94822.16;;;9.81;67.64
22257;BME280;11297;42.686;23.374;2023-03-03T13:08:59;94857.25;;;10.08;68.08
22257;BME280;11297;42.686;23.374;2023-03-03T13:11:50;94852.16;;;9.95;68.05
22257;BME280;11297;42.686;23.374;2023-03-03T13:19:59;94850.28;;;9.65;68.49
22257;BME280;11297;42.686;23.374;2023-03-03T13:22:44;94854.06;;;9.59;68.70
22257;BME280;11297;42.686;23.374;2023-03-03T13:27:51;94851.31;;;9.56;68.74
22257;BME280;11297;42.686;23.374;2023-03-03T13:30:24;94841.75;;;9.43;69.73
22257;BME280;11297;42.686;23.374;2023-03-03T13:33:14;94845.22;;;9.60;70.15
22257;BME280;11297;42.686;23.374;2023-03-03T13:35:55;94850.25;;;9.57;70.68
22257;BME280;11297;42.686;23.374;2023-03-03T13:38:29;94853.66;;;9.66;70.21
22257;BME280;11297;42.686;23.374;2023-03-03T13:43:52;94841.03;;;9.73;70.59
22257;BME280;11297;42.686;23.374;2023-03-03T13:54:58;94841.41;;;9.58;69.51
22257;BME280;11297;42.686;23.374;2023-03-03T14:05:35;94844.94;;;9.40;69.58
22257;BME280;11297;42.686;23.374;2023-03-03T14:10:42;94848.31;;;9.41;70.85
22257;BME280;11297;42.686;23.374;2023-03-03T14:16:16;94847.31;;;9.50;71.04
22257;BME280;11297;42.686;23.374;2023-03-03T14:18:53;94840.13;;;9.47;70.37
22257;BME280;11297;42.686;23.374;2023-03-03T14:21:39;94841.88;;;9.38;70.73
22257;BME280;11297;42.686;23.374;2023-03-03T14:24:20;94835.06;;;9.42;71.00
22257;BME280;11297;42.686;23.374;2023-03-03T14:26:52;94834.78;;;9.44;71.54
22257;BME280;11297;42.686;23.374;2023-03-03T14:32:26;94833.16;;;9.56;71.58
22257;BME280;11297;42.686;23.374;2023-03-03T14:34:58;94834.19;;;9.47;71.32
22257;BME280;11297;42.686;23.374;2023-03-03T14:37:48;94833.53;;;9.41;72.46
22257;BME280;11297;42.686;23.374;2023-03-03T14:42:53;94828.13;;;9.59;70.71
22257;BME280;11297;42.686;23.374;2023-03-03T14:45:40;94817.13;;;9.54;71.19
22257;BME280;11297;42.686;23.374;2023-03-03T14:48:19;94830.03;;;9.67;71.43
22257;BME280;11297;42.686;23.374;2023-03-03T14:50:51;94830.63;;;9.64;70.46
22257;BME280;11297;42.686;23.374;2023-03-03T14:55:45;94829.03;;;9.55;70.36
22257;BME280;11297;42.686;23.374;2023-03-03T14:58:33;94837.75;;;9.59;69.92
22257;BME280;11297;42.686;23.374;2023-03-03T15:04:04;94831.25;;;9.70;69.28
22257;BME280;11297;42.686;23.374;2023-03-03T15:11:53;94825.22;;;9.83;68.66
22257;BME280;11297;42.686;23.374;2023-03-03T15:14:22;94818.38;;;9.87;68.71
22257;BME280;11297;42.686;23.374;2023-03-03T15:16:50;94816.84;;;9.86;68.11
22257;BME280;11297;42.686;23.374;2023-03-03T15:22:07;94820.03;;;9.83;68.26
22257;BME280;11297;42.686;23.374;2023-03-03T15:24:59;94823.31;;;9.97;68.91
22257;BME280;11297;42.686;23.374;2023-03-03T15:27:34;94821.00;;;9.95;68.94
22257;BME280;11297;42.686;23.374;2023-03-03T15:33:01;94807.28;;;9.95;68.58
22257;BME280;11297;42.686;23.374;2023-03-03T15:35:44;94771.28;;;9.71;67.99
22257;BME280;11297;42.686;23.374;2023-03-03T15:38:27;94841.06;;;10.11;68.22
22257;BME280;11297;42.686;23.374;2023-03-03T15:41:10;94843.53;;;10.16;68.18
22257;BME280;11297;42.686;23.374;2023-03-03T16:02:55;94840.22;;;10.24;67.90
22257;BME280;11297;42.686;23.374;2023-03-03T16:05:24;94836.84;;;10.24;67.89
22257;BME280;11297;42.686;23.374;2023-03-03T16:08:10;94841.56;;;10.22;67.75
22257;BME280;11297;42.686;23.374;2023-03-03T16:27:39;94867.81;;;10.12;67.67
22257;BME280;11297;42.686;23.374;2023-03-03T16:35:54;94863.09;;;10.14;67.51
22257;BME280;11297;42.686;23.374;2023-03-03T16:38:31;94870.13;;;10.22;67.36
22257;BME280;11297;42.686;23.374;2023-03-03T16:41:00;94862.78;;;10.24;67.54
22257;BME280;11297;42.686;23.374;2023-03-03T16:51:48;94882.34;;;10.21;66.93
22257;BME280;11297;42.686;23.374;2023-03-03T16:54:32;94888.00;;;10.23;67.52
22257;BME280;11297;42.686;23.374;2023-03-03T17:00:06;94893.31;;;10.18;67.54
22257;BME280;11297;42.686;23.374;2023-03-03T17:10:44;94903.63;;;10.40;67.21
22257;BME280;11297;42.686;23.374;2023-03-03T17:21:50;94906.91;;;10.54;66.03
22257;BME280;11297;42.686;23.374;2023-03-03T17:27:47;94902.00;;;10.52;66.06
22257;BME280;11297;42.686;23.374;2023-03-03T17:30:37;94904.34;;;10.71;68.77
22257;BME280;11297;42.686;23.374;2023-03-03T17:46:53;94923.78;;;10.82;65.65
22257;BME280;11297;42.686;23.374;2023-03-03T18:00:30;94944.06;;;10.71;65.89
22257;BME280;11297;42.686;23.374;2023-03-03T18:03:21;94942.38;;;10.67;66.42
22257;BME280;11297;42.686;23.374;2023-03-03T18:09:11;94948.66;;;10.74;65.50
22257;BME280;11297;42.686;23.374;2023-03-03T18:20:46;94957.66;;;10.68;66.54
22257;BME280;11297;42.686;23.374;2023-03-03T18:25:54;94960.44;;;10.72;66.55
22257;BME280;11297;42.686;23.374;2023-03-03T18:28:22;94963.16;;;10.67;66.74